createdAt,value
2019-05-03T00:01:02.396Z,18.20
2019-05-03T00:03:28.463Z,16.43
2019-05-03T00:05:56.324Z,15.13
2019-05-03T00:08:22.362Z,16.67
2019-05-03T00:10:48.512Z,15.43
2019-05-03T00:13:14.540Z,17.27
2019-05-03T00:15:54.515Z,17.00
2019-05-03T00:18:22.129Z,15.80
2019-05-03T00:20:48.253Z,17.07
2019-05-03T00:23:14.320Z,17.60
2019-05-03T00:25:41.785Z,16.83
2019-05-03T00:28:07.963Z,20.80
2019-05-03T00:30:33.993Z,20.17
2019-05-03T00:33:00.072Z,18.03
2019-05-03T00:35:27.814Z,18.63
2019-05-03T00:37:55.546Z,17.70
2019-05-03T00:40:28.121Z,20.17
2019-05-03T00:42:54.165Z,20.03
2019-05-03T00:45:22.034Z,15.17
2019-05-03T00:47:48.014Z,16.63
2019-05-03T00:50:14.037Z,17.87
2019-05-03T00:52:39.915Z,17.40
2019-05-03T00:55:15.781Z,18.60
2019-05-03T00:57:33.684Z,16.60
2019-05-03T01:00:01.806Z,18.67
2019-05-03T01:02:27.468Z,17.07
2019-05-03T01:04:53.686Z,16.10
2019-05-03T01:07:19.831Z,18.97
2019-05-03T01:09:45.912Z,13.97
2019-05-03T01:12:12.623Z,18.03
2019-05-03T01:14:39.885Z,18.47
2019-05-03T01:17:05.751Z,20.87
2019-05-03T01:19:32.131Z,15.30
2019-05-03T01:21:58.036Z,16.73
2019-05-03T01:24:23.976Z,16.80
2019-05-03T01:26:49.970Z,19.07
2019-05-03T01:29:15.855Z,19.00
2019-05-03T01:31:44.596Z,20.33
2019-05-03T01:34:12.396Z,20.57
2019-05-03T01:36:38.596Z,22.10
2019-05-03T01:39:04.830Z,19.30
2019-05-03T01:41:32.331Z,16.87
2019-05-03T01:43:58.266Z,21.63
2019-05-03T01:46:24.333Z,18.40
2019-05-03T01:48:52.464Z,20.97
2019-05-03T01:51:22.917Z,20.00
2019-05-03T01:53:49.860Z,20.70
2019-05-03T01:56:15.756Z,18.80
2019-05-03T01:58:41.780Z,23.63
2019-05-03T02:01:15.681Z,22.03
2019-05-03T02:04:00.123Z,21.27
2019-05-03T02:06:26.074Z,19.07
2019-05-03T02:08:52.238Z,22.07
2019-05-03T02:11:18.231Z,19.30
2019-05-03T02:13:44.072Z,22.67
2019-05-03T02:16:11.601Z,19.03
2019-05-03T02:18:37.655Z,18.73
2019-05-03T02:21:03.731Z,21.43
2019-05-03T02:23:29.576Z,26.37
2019-05-03T02:25:58.941Z,18.63
2019-05-03T02:28:23.231Z,19.40
2019-05-03T02:30:49.221Z,21.03
2019-05-03T02:33:15.238Z,20.73
2019-05-03T02:35:42.944Z,19.50
2019-05-03T02:38:09.637Z,19.37
2019-05-03T02:40:35.638Z,20.33
2019-05-03T02:43:12.355Z,25.00
2019-05-03T02:45:40.361Z,21.93
2019-05-03T02:48:16.517Z,23.43
2019-05-03T02:50:42.281Z,21.53
2019-05-03T02:53:08.125Z,18.53
2019-05-03T02:55:35.914Z,25.73
2019-05-03T02:58:01.941Z,20.37
2019-05-03T03:00:37.418Z,25.27
2019-05-03T03:03:05.478Z,19.47
2019-05-03T03:05:31.451Z,16.50
2019-05-03T03:07:58.212Z,17.37
2019-05-03T03:10:26.485Z,15.17
2019-05-03T03:12:56.350Z,18.67
2019-05-03T03:15:25.690Z,15.03
2019-05-03T03:17:52.670Z,15.37
2019-05-03T03:20:18.618Z,14.03
2019-05-03T03:22:47.675Z,18.23
2019-05-03T03:25:17.508Z,24.27
2019-05-03T03:27:45.335Z,20.23
2019-05-03T03:30:30.927Z,20.47
2019-05-03T03:32:58.991Z,17.53
2019-05-03T03:35:29.834Z,20.93
2019-05-03T03:37:56.040Z,19.73
2019-05-03T03:40:25.441Z,18.67
2019-05-03T03:42:51.583Z,16.53
2019-05-03T03:45:17.653Z,14.97
2019-05-03T03:47:46.509Z,13.40
2019-05-03T03:50:15.054Z,16.20
2019-05-03T03:52:40.640Z,16.13
2019-05-03T03:55:06.991Z,15.97
2019-05-03T03:57:35.639Z,16.70
2019-05-03T04:00:05.450Z,16.53
2019-05-03T04:02:35.133Z,15.73
2019-05-03T04:05:00.134Z,17.80
2019-05-03T04:07:26.383Z,16.27
2019-05-03T04:09:56.083Z,21.07
2019-05-03T04:12:21.351Z,20.93
2019-05-03T04:15:01.719Z,17.73
2019-05-03T04:17:46.795Z,16.60
2019-05-03T04:20:16.206Z,13.87
2019-05-03T04:22:41.902Z,13.77
2019-05-03T04:25:08.061Z,14.93
2019-05-03T04:27:36.478Z,12.77
2019-05-03T04:30:05.854Z,12.93
2019-05-03T04:32:35.958Z,11.33
2019-05-03T04:35:05.371Z,12.60
2019-05-03T04:37:31.458Z,14.67
2019-05-03T04:39:57.429Z,14.70
2019-05-03T04:42:25.374Z,13.93
2019-05-03T04:44:51.119Z,14.60
2019-05-03T04:47:17.181Z,14.50
2019-05-03T04:49:45.989Z,15.00
2019-05-03T04:52:10.911Z,16.13
2019-05-03T04:54:50.618Z,17.00
2019-05-03T04:57:34.341Z,10.73
2019-05-03T04:59:45.146Z,13.07
2019-05-03T05:02:11.502Z,12.43
2019-05-03T05:04:37.334Z,13.27
2019-05-03T05:07:05.935Z,12.50
2019-05-03T05:09:31.254Z,11.80
2019-05-03T05:11:57.195Z,12.30
2019-05-03T05:14:25.656Z,10.67
2019-05-03T05:16:50.791Z,10.47
2019-05-03T05:19:18.632Z,11.63
2019-05-03T05:21:46.495Z,13.57
2019-05-03T05:24:12.513Z,13.20
2019-05-03T05:26:44.620Z,10.90
2019-05-03T05:29:15.408Z,10.03
2019-05-03T05:31:41.237Z,12.43
2019-05-03T05:34:08.809Z,10.97
2019-05-03T05:36:35.083Z,10.50
2019-05-03T05:39:00.930Z,10.47
2019-05-03T05:41:27.018Z,8.23
2019-05-03T05:43:54.845Z,12.27
2019-05-03T05:46:22.520Z,11.57
2019-05-03T05:48:49.988Z,11.50
2019-05-03T05:51:16.223Z,14.77
2019-05-03T05:53:42.187Z,11.87
2019-05-03T05:56:18.768Z,10.60
2019-05-03T05:58:52.274Z,10.37
2019-05-03T06:01:24.873Z,17.90
2019-05-03T06:03:50.647Z,13.47
2019-05-03T06:06:18.394Z,16.33
2019-05-03T06:08:49.579Z,15.50
2019-05-03T06:11:26.365Z,12.90
2019-05-03T06:13:54.607Z,11.37
2019-05-03T06:16:24.416Z,10.27
2019-05-03T06:18:52.051Z,11.37
2019-05-03T06:21:24.968Z,12.37
2019-05-03T06:23:53.100Z,14.33
2019-05-03T06:26:35.950Z,13.20
2019-05-03T06:29:04.626Z,14.80
2019-05-03T06:31:38.454Z,11.43
2019-05-03T06:34:04.591Z,12.80
2019-05-03T06:36:30.592Z,12.63
2019-05-03T06:38:56.769Z,13.10
2019-05-03T06:41:22.726Z,20.30
2019-05-03T06:43:48.886Z,13.87
2019-05-03T06:46:18.158Z,17.97
2019-05-03T06:48:44.359Z,16.07
2019-05-03T06:51:14.118Z,16.40
2019-05-03T06:53:41.930Z,14.43
2019-05-03T06:56:05.912Z,15.83
2019-05-03T06:58:35.742Z,16.97
2019-05-03T07:01:01.643Z,17.93
2019-05-03T07:03:35.461Z,15.63
2019-05-03T07:06:18.415Z,15.03
2019-05-03T07:08:55.235Z,12.57
2019-05-03T07:11:21.252Z,16.50
2019-05-03T07:13:47.121Z,13.07
2019-05-03T07:16:14.898Z,17.63
2019-05-03T07:18:40.924Z,12.97
2019-05-03T07:21:07.015Z,13.90
2019-05-03T07:23:34.758Z,15.43
2019-05-03T07:26:00.828Z,18.80
2019-05-03T07:28:26.816Z,20.07
2019-05-03T07:30:54.411Z,15.00
2019-05-03T07:33:25.559Z,14.70
2019-05-03T07:35:51.604Z,17.97
2019-05-03T07:38:17.542Z,11.73
2019-05-03T07:40:44.591Z,21.07
2019-05-03T07:43:10.715Z,14.20
2019-05-03T07:45:36.587Z,14.37
2019-05-03T07:48:04.544Z,12.80
2019-05-03T07:50:32.999Z,13.50
2019-05-03T07:52:58.285Z,12.87
2019-05-03T07:55:42.737Z,11.63
2019-05-03T07:58:10.500Z,12.17
2019-05-03T08:00:36.555Z,12.80
2019-05-03T08:03:04.912Z,12.80
2019-05-03T08:05:30.893Z,16.40
2019-05-03T08:07:56.730Z,14.30
2019-05-03T08:10:22.822Z,13.47
2019-05-03T08:12:48.676Z,15.17
2019-05-03T08:15:15.731Z,11.67
2019-05-03T08:17:41.789Z,14.03
2019-05-03T08:20:07.823Z,16.07
2019-05-03T08:22:34.533Z,13.63
2019-05-03T08:25:00.558Z,13.90
2019-05-03T08:27:26.419Z,15.70
2019-05-03T08:29:52.271Z,16.17
2019-05-03T08:32:32.400Z,17.83
2019-05-03T08:35:16.937Z,15.13
2019-05-03T08:37:50.649Z,16.80
2019-05-03T08:40:17.319Z,14.80
2019-05-03T08:42:44.463Z,14.37
2019-05-03T08:45:10.738Z,16.00
2019-05-03T08:47:36.674Z,17.03
2019-05-03T08:50:05.610Z,17.10
2019-05-03T08:52:31.775Z,21.53
2019-05-03T08:54:57.642Z,18.83
2019-05-03T08:57:25.343Z,17.97
2019-05-03T08:59:51.350Z,20.40
2019-05-03T09:02:18.125Z,21.80
2019-05-03T09:04:46.243Z,16.97
2019-05-03T09:07:14.610Z,18.13
2019-05-03T09:09:42.178Z,19.27
2019-05-03T09:12:08.156Z,14.53
2019-05-03T09:14:42.556Z,14.60
2019-05-03T09:17:02.258Z,13.43
2019-05-03T09:19:28.123Z,14.30
2019-05-03T09:21:54.885Z,14.17
2019-05-03T09:24:20.892Z,15.83
2019-05-03T09:26:46.832Z,16.93
2019-05-03T09:29:14.708Z,12.87
2019-05-03T09:31:40.568Z,14.77
2019-05-03T09:34:08.283Z,16.40
2019-05-03T09:36:34.591Z,16.33
2019-05-03T09:39:00.630Z,18.47
2019-05-03T09:41:27.167Z,14.87
2019-05-03T09:43:55.253Z,17.40
2019-05-03T09:46:23.334Z,13.93
2019-05-03T09:48:48.521Z,15.13
2019-05-03T09:51:14.897Z,15.43
2019-05-03T09:53:51.757Z,15.93
2019-05-03T09:56:19.571Z,14.30
2019-05-03T09:58:46.117Z,14.53
2019-05-03T10:01:12.250Z,16.03
2019-05-03T10:03:38.334Z,17.53
2019-05-03T10:06:04.357Z,12.63
2019-05-03T10:08:30.189Z,13.67
2019-05-03T10:11:11.519Z,11.47
2019-05-03T10:13:37.659Z,11.83
2019-05-03T10:16:05.979Z,14.67
2019-05-03T10:18:34.812Z,12.47
2019-05-03T10:21:00.785Z,13.60
2019-05-03T10:23:28.621Z,15.10
2019-05-03T10:25:55.222Z,13.90
2019-05-03T10:28:21.134Z,14.40
2019-05-03T10:30:47.102Z,12.53
2019-05-03T10:33:17.872Z,13.20
2019-05-03T10:35:45.137Z,13.07
2019-05-03T10:38:11.415Z,15.27
2019-05-03T10:40:41.592Z,16.87
2019-05-03T10:43:08.326Z,15.47
2019-05-03T10:45:35.508Z,17.87
2019-05-03T10:48:01.634Z,16.07
2019-05-03T10:50:27.700Z,17.50
2019-05-03T10:52:58.207Z,18.67
2019-05-03T10:55:25.038Z,19.80
2019-05-03T10:58:08.079Z,19.37
2019-05-03T11:00:48.184Z,19.37
2019-05-03T11:03:05.330Z,25.17
2019-05-03T11:05:31.786Z,20.73
2019-05-03T11:07:57.703Z,20.23
2019-05-03T11:10:25.281Z,21.30
2019-05-03T11:12:51.455Z,21.67
2019-05-03T11:15:17.384Z,20.33
2019-05-03T11:17:45.370Z,25.73
2019-05-03T11:20:11.446Z,23.23
2019-05-03T11:22:37.402Z,22.97
2019-05-03T11:25:05.151Z,21.10
2019-05-03T11:27:48.515Z,22.13
2019-05-03T11:30:15.758Z,23.93
2019-05-03T11:32:49.801Z,22.10
2019-05-03T11:35:24.687Z,23.93
2019-05-03T11:37:52.604Z,21.33
2019-05-03T11:40:18.567Z,22.10
2019-05-03T11:42:44.915Z,21.83
2019-05-03T11:45:11.060Z,21.40
2019-05-03T11:47:37.232Z,18.13
2019-05-03T11:50:06.376Z,17.30
2019-05-03T11:52:32.418Z,19.83
2019-05-03T11:54:58.483Z,16.83
2019-05-03T11:57:26.597Z,16.60
2019-05-03T11:59:54.645Z,14.77
2019-05-03T12:02:22.266Z,11.57
2019-05-03T12:04:48.121Z,12.77
2019-05-03T12:07:18.391Z,13.87
2019-05-03T12:09:45.203Z,15.63
2019-05-03T12:12:15.044Z,15.23
2019-05-03T12:14:40.978Z,16.20
2019-05-03T12:17:17.860Z,18.27
2019-05-03T12:19:37.883Z,19.07
2019-05-03T12:22:06.154Z,20.40
2019-05-03T12:24:32.442Z,18.47
2019-05-03T12:26:58.678Z,21.80
2019-05-03T12:29:24.779Z,17.10
2019-05-03T12:31:50.616Z,20.20
2019-05-03T12:34:16.556Z,21.73
2019-05-03T12:36:42.513Z,19.27
2019-05-03T12:39:23.211Z,15.47
2019-05-03T12:41:36.225Z,18.00
2019-05-03T12:44:04.505Z,17.37
2019-05-03T12:46:30.024Z,14.80
2019-05-03T12:48:55.861Z,17.80
2019-05-03T12:51:21.736Z,14.67
2019-05-03T12:53:47.552Z,13.83
2019-05-03T12:56:20.562Z,15.87
2019-05-03T12:58:45.540Z,13.33
2019-05-03T13:01:40.935Z,13.53
2019-05-03T13:03:59.198Z,13.53
2019-05-03T13:06:25.448Z,16.90
2019-05-03T13:08:51.468Z,16.97
2019-05-03T13:11:17.363Z,6.60
2019-05-03T13:13:45.242Z,6.43
2019-05-03T13:16:15.185Z,5.07
2019-05-03T13:18:40.816Z,3.90
2019-05-03T13:21:06.845Z,3.33
2019-05-03T13:23:35.357Z,2.53
2019-05-03T13:26:00.853Z,5.13
2019-05-03T13:28:26.816Z,4.33
2019-05-03T13:30:54.492Z,3.27
2019-05-03T13:33:20.449Z,3.43
2019-05-03T13:35:46.386Z,8.47
2019-05-03T13:38:12.237Z,13.97
2019-05-03T13:40:38.139Z,5.57
2019-05-03T13:43:06.465Z,6.03
2019-05-03T13:45:32.019Z,6.93
2019-05-03T13:47:58.003Z,4.23
2019-05-03T13:50:24.572Z,7.13
2019-05-03T13:52:50.645Z,5.73
2019-05-03T13:55:16.742Z,7.73
2019-05-03T13:57:42.658Z,14.83
2019-05-03T14:00:09.121Z,10.27
2019-05-03T14:02:35.746Z,8.03
2019-05-03T14:05:04.958Z,8.17
2019-05-03T14:07:30.979Z,8.93
2019-05-03T14:09:56.802Z,10.67
2019-05-03T14:12:24.378Z,9.53
2019-05-03T14:14:55.749Z,8.47
2019-05-03T14:17:25.200Z,8.43
2019-05-03T14:19:54.506Z,8.93
2019-05-03T14:22:22.313Z,9.60
2019-05-03T14:24:48.162Z,5.43
2019-05-03T14:27:15.637Z,6.30
2019-05-03T14:29:41.967Z,7.87
2019-05-03T14:32:07.928Z,6.13
2019-05-03T14:34:35.819Z,7.70
2019-05-03T14:37:01.666Z,6.67
2019-05-03T14:39:27.658Z,6.67
2019-05-03T14:41:55.345Z,12.63
